Time;durP1;ratioP1;P1;durP2;ratioP2;P2;SDS_P1;SDS_P2;PMS_P1;PMS_P2;Temp;Humidity;BMP_temperature;BMP_pressure;BME280_temperature;BME280_humidity;BME280_pressure;Samples;Min_cycle;Max_cycle;Signal;HPM_P1;HPM_P2
2022/01/15 00:00:24;;;;;;;;;;;1.60;99.90;;;;;;5037596;28;19909;-41
2022/01/15 00:02:50;;;;;;;;;;;1.60;99.90;;;;;;5055716;28;19915;-42
2022/01/15 00:05:15;;;;;;;;;;;1.50;99.90;;;;;;5054967;28;19913;-40
2022/01/15 00:07:42;;;;;;;;;;;1.50;99.90;;;;;;5055384;28;19920;-41
2022/01/15 00:10:07;;;;;;;;;;;1.50;99.90;;;;;;5055919;28;19922;-41
2022/01/15 00:12:40;;;;;;;;;;;1.50;99.90;;;;;;5055494;28;19909;-41
2022/01/15 00:15:07;;;;;;;;;;;1.50;99.90;;;;;;5055433;28;20337;-40
2022/01/15 00:18:28;;;;;;;;;;;1.50;99.90;;;;;;5055461;28;19909;-43
2022/01/15 00:20:19;;;;;;;;;;;1.50;99.90;;;;;;5044107;28;19909;-42
2022/01/15 00:22:48;;;;;;;;;;;1.50;99.90;;;;;;5054903;28;19972;-40
2022/01/15 00:25:14;;;;;;;;;;;1.50;99.90;;;;;;5054951;28;19909;-41
2022/01/15 00:27:39;;;;;;;;;;;1.50;99.90;;;;;;5054844;28;20244;-42
2022/01/15 00:30:05;;;;;;;;;;;1.50;99.90;;;;;;5054953;28;19917;-41
2022/01/15 00:32:31;;;;;;;;;;;1.40;99.90;;;;;;5054982;28;20043;-41
2022/01/15 00:34:57;;;;;;;;;;;1.40;99.90;;;;;;5054796;28;19971;-42
2022/01/15 00:37:22;;;;;;;;;;;1.30;99.90;;;;;;5054801;28;20192;-41
2022/01/15 00:39:48;;;;;;;;;;;1.20;99.90;;;;;;5054977;28;19909;-42
2022/01/15 00:42:14;;;;;;;;;;;1.20;99.90;;;;;;5054675;28;20429;-41
2022/01/15 00:44:41;;;;;;;;;;;1.20;99.90;;;;;;5054920;28;20333;-41
2022/01/15 00:47:07;;;;;;;;;;;1.20;99.90;;;;;;5054494;28;20094;-42
2022/01/15 00:49:32;;;;;;;;;;;1.10;99.90;;;;;;5055034;28;19941;-42
2022/01/15 00:51:58;;;;;;;;;;;1.20;99.90;;;;;;5054771;28;19909;-42
2022/01/15 00:54:23;;;;;;;;;;;1.20;99.90;;;;;;5054388;28;19916;-42
2022/01/15 00:56:49;;;;;;;;;;;1.30;99.90;;;;;;5054384;28;20011;-42
2022/01/15 00:59:17;;;;;;;;;;;1.30;99.90;;;;;;5054603;28;19932;-42
2022/01/15 01:01:43;;;;;;;;;;;1.20;99.90;;;;;;5054594;28;19916;-42
2022/01/15 01:04:08;;;;;;;;;;;1.30;99.90;;;;;;5054495;28;19909;-41
2022/01/15 01:06:34;;;;;;;;;;;1.20;99.90;;;;;;5054384;28;19916;-43
2022/01/15 01:08:59;;;;;;;;;;;1.10;99.90;;;;;;5054709;28;20377;-41
2022/01/15 01:11:47;;;;;;;;;;;1.10;99.90;;;;;;5036574;28;19940;-41
2022/01/15 01:25:03;;;;;;;;;;;0.90;99.90;;;;;;5054340;28;19909;-42
2022/01/15 01:27:42;;;;;;;;;;;0.90;99.90;;;;;;5054123;28;19966;-42
2022/01/15 01:30:31;;;;;;;;;;;1.00;99.90;;;;;;5054198;28;19913;-42
2022/01/15 01:35:35;;;;;;;;;;;1.10;99.90;;;;;;5054038;28;19916;-41
2022/01/15 01:38:11;;;;;;;;;;;1.00;99.90;;;;;;5054085;28;19909;-40
2022/01/15 01:40:43;;;;;;;;;;;1.00;99.90;;;;;;5053783;28;20370;-41
2022/01/15 01:43:40;;;;;;;;;;;1.00;99.90;;;;;;5053714;28;19913;-41
2022/01/15 01:46:13;;;;;;;;;;;1.00;99.90;;;;;;5053404;28;20011;-42
2022/01/15 01:48:39;;;;;;;;;;;1.00;99.90;;;;;;5053813;28;19920;-42
2022/01/15 01:51:06;;;;;;;;;;;0.90;99.90;;;;;;5053758;28;20302;-40
2022/01/15 01:53:32;;;;;;;;;;;0.80;99.90;;;;;;5053494;28;20363;-41
2022/01/15 01:55:58;;;;;;;;;;;0.90;99.90;;;;;;5053635;28;20359;-41
2022/01/15 01:58:23;;;;;;;;;;;1.00;99.90;;;;;;5054102;28;19909;-41
2022/01/15 02:00:49;;;;;;;;;;;0.90;99.90;;;;;;5054000;28;19916;-42
2022/01/15 02:03:15;;;;;;;;;;;1.00;99.90;;;;;;5053718;28;19912;-42
2022/01/15 02:05:40;;;;;;;;;;;0.90;99.90;;;;;;5053885;28;19915;-41
2022/01/15 02:08:05;;;;;;;;;;;0.90;99.90;;;;;;5053535;28;19913;-41
2022/01/15 02:10:32;;;;;;;;;;;0.80;99.90;;;;;;5053536;28;19956;-41
2022/01/15 02:12:57;;;;;;;;;;;0.90;99.90;;;;;;5053502;28;19947;-41
2022/01/15 02:15:23;;;;;;;;;;;0.80;99.90;;;;;;5053470;28;19948;-42
2022/01/15 02:17:50;;;;;;;;;;;0.90;99.90;;;;;;5053344;28;19909;-42
2022/01/15 02:25:47;;;;;;;;;;;0.90;99.90;;;;;;5053383;28;19916;-42
2022/01/15 02:28:13;;;;;;;;;;;0.90;99.90;;;;;;5056815;28;19912;-42
2022/01/15 02:30:39;;;;;;;;;;;0.80;99.90;;;;;;5057092;28;19959;-41
2022/01/15 02:33:05;;;;;;;;;;;0.80;99.90;;;;;;5057423;28;19912;-41
2022/01/15 02:35:30;;;;;;;;;;;0.70;99.90;;;;;;5057393;28;19939;-41
2022/01/15 02:38:03;;;;;;;;;;;0.70;99.90;;;;;;5057261;28;20236;-41
2022/01/15 02:40:29;;;;;;;;;;;0.80;99.90;;;;;;5057309;28;19954;-42
2022/01/15 02:42:56;;;;;;;;;;;0.70;99.90;;;;;;5057007;28;19913;-42
2022/01/15 02:45:22;;;;;;;;;;;0.50;99.90;;;;;;5057201;28;20267;-41
2022/01/15 02:48:01;;;;;;;;;;;0.50;99.90;;;;;;5057047;28;19913;-41
2022/01/15 02:50:27;;;;;;;;;;;0.50;99.90;;;;;;5057222;28;20275;-41
2022/01/15 02:52:52;;;;;;;;;;;0.50;99.90;;;;;;5056734;28;19909;-41
2022/01/15 02:55:18;;;;;;;;;;;0.50;99.90;;;;;;5057006;28;19908;-42
2022/01/15 02:57:43;;;;;;;;;;;0.50;99.90;;;;;;5056931;28;19915;-41
2022/01/15 03:00:09;;;;;;;;;;;0.50;99.90;;;;;;5056849;28;19909;-41
2022/01/15 03:02:35;;;;;;;;;;;0.40;99.90;;;;;;5056808;28;19913;-42
2022/01/15 03:05:00;;;;;;;;;;;0.40;99.90;;;;;;5056576;28;19916;-41
2022/01/15 03:07:26;;;;;;;;;;;0.60;99.90;;;;;;5056660;28;19919;-42
2022/01/15 03:09:52;;;;;;;;;;;0.50;99.90;;;;;;5056809;28;19920;-42
2022/01/15 03:12:17;;;;;;;;;;;0.50;99.90;;;;;;5057064;28;19996;-41
2022/01/15 03:14:45;;;;;;;;;;;0.40;99.90;;;;;;5056362;28;20363;-41
2022/01/15 03:17:10;;;;;;;;;;;0.40;99.90;;;;;;5073326;28;19927;-41
2022/01/15 03:19:36;;;;;;;;;;;0.50;99.90;;;;;;5074814;28;19912;-42
2022/01/15 03:22:02;;;;;;;;;;;0.40;99.90;;;;;;5069302;28;19913;-41
2022/01/15 03:24:28;;;;;;;;;;;0.40;99.90;;;;;;5068340;28;20371;-40
2022/01/15 03:26:53;;;;;;;;;;;0.50;99.90;;;;;;5079100;28;19995;-41
2022/01/15 03:29:19;;;;;;;;;;;0.30;99.90;;;;;;5094117;28;19955;-41
2022/01/15 03:31:44;;;;;;;;;;;0.40;99.90;;;;;;5076033;28;19913;-41
2022/01/15 03:34:10;;;;;;;;;;;0.40;99.90;;;;;;5076339;28;19909;-41
2022/01/15 03:36:35;;;;;;;;;;;0.30;99.90;;;;;;5076295;28;20314;-42
2022/01/15 03:39:01;;;;;;;;;;;0.30;99.90;;;;;;5065343;28;20456;-41
2022/01/15 03:41:26;;;;;;;;;;;0.20;99.90;;;;;;5056505;28;19943;-42
2022/01/15 03:43:52;;;;;;;;;;;0.10;99.90;;;;;;5056096;28;19909;-42
2022/01/15 03:46:17;;;;;;;;;;;0.20;99.90;;;;;;5069187;28;19958;-42
2022/01/15 03:48:43;;;;;;;;;;;0.10;99.90;;;;;;5075110;28;19916;-42
2022/01/15 03:51:08;;;;;;;;;;;0.20;99.90;;;;;;5073814;28;19913;-44
2022/01/15 03:53:34;;;;;;;;;;;0.20;99.90;;;;;;5060888;28;19917;-42
2022/01/15 03:55:59;;;;;;;;;;;0.30;99.90;;;;;;5055168;28;20004;-41
2022/01/15 03:58:25;;;;;;;;;;;0.30;99.90;;;;;;5055181;28;20297;-42
2022/01/15 04:00:50;;;;;;;;;;;0.40;99.90;;;;;;5054738;28;19908;-41
2022/01/15 04:03:16;;;;;;;;;;;0.30;99.90;;;;;;5056115;28;20407;-42
2022/01/15 04:05:42;;;;;;;;;;;0.30;99.90;;;;;;5055894;28;19912;-41
2022/01/15 04:08:08;;;;;;;;;;;0.30;99.90;;;;;;5064072;28;20278;-42
2022/01/15 04:10:33;;;;;;;;;;;0.30;99.90;;;;;;5058045;28;20259;-42
2022/01/15 04:12:59;;;;;;;;;;;0.20;99.90;;;;;;5054842;28;20301;-43
2022/01/15 04:15:25;;;;;;;;;;;0.30;99.90;;;;;;5058227;28;19920;-42
2022/01/15 04:17:51;;;;;;;;;;;0.30;99.90;;;;;;5054529;28;20263;-42
2022/01/15 04:20:20;;;;;;;;;;;0.20;99.90;;;;;;5055106;28;19908;-42
2022/01/15 04:22:46;;;;;;;;;;;0.30;99.90;;;;;;5054267;28;19921;-42
2022/01/15 04:25:12;;;;;;;;;;;0.30;99.90;;;;;;5054231;28;19920;-44
2022/01/15 04:27:38;;;;;;;;;;;0.30;99.90;;;;;;5059731;28;19923;-42
2022/01/15 04:30:05;;;;;;;;;;;0.20;99.90;;;;;;5054488;28;19913;-41
2022/01/15 04:32:31;;;;;;;;;;;0.30;99.90;;;;;;5061510;28;19917;-43
2022/01/15 04:34:58;;;;;;;;;;;0.30;99.90;;;;;;5068892;28;19908;-41
2022/01/15 04:37:25;;;;;;;;;;;0.30;99.90;;;;;;5071290;28;19918;-42
2022/01/15 04:39:51;;;;;;;;;;;0.30;99.90;;;;;;5054427;28;20084;-42
2022/01/15 04:42:20;;;;;;;;;;;0.30;99.90;;;;;;5061731;28;20018;-41
2022/01/15 04:44:46;;;;;;;;;;;0.30;99.90;;;;;;5073740;28;20342;-42
2022/01/15 04:47:11;;;;;;;;;;;0.30;99.90;;;;;;5064083;28;19959;-42
2022/01/15 04:49:37;;;;;;;;;;;0.30;99.90;;;;;;5054519;28;19940;-41
2022/01/15 04:52:03;;;;;;;;;;;0.30;99.90;;;;;;5071576;28;20382;-42
2022/01/15 04:54:28;;;;;;;;;;;0.20;99.90;;;;;;5074297;28;19915;-41
2022/01/15 04:56:54;;;;;;;;;;;0.30;99.90;;;;;;5074098;28;19912;-41
2022/01/15 04:59:20;;;;;;;;;;;0.20;99.90;;;;;;5074312;28;20363;-41
2022/01/15 05:01:46;;;;;;;;;;;0.10;99.90;;;;;;5073548;28;20278;-41
2022/01/15 05:04:12;;;;;;;;;;;0.20;99.90;;;;;;5074549;28;19908;-41
2022/01/15 05:06:37;;;;;;;;;;;0.20;99.90;;;;;;5074132;28;19920;-42
2022/01/15 05:09:05;;;;;;;;;;;0.20;99.90;;;;;;5074275;28;19920;-41
2022/01/15 05:11:43;;;;;;;;;;;0.20;99.90;;;;;;5074024;28;19916;-41
2022/01/15 05:14:10;;;;;;;;;;;0.00;99.90;;;;;;5074397;28;19948;-41
2022/01/15 05:16:36;;;;;;;;;;;0.10;99.90;;;;;;5074044;28;20339;-41
2022/01/15 05:19:02;;;;;;;;;;;0.10;99.90;;;;;;5073919;28;19916;-42
2022/01/15 05:21:27;;;;;;;;;;;0.10;99.90;;;;;;5074173;28;19951;-41
2022/01/15 05:23:53;;;;;;;;;;;0.10;99.90;;;;;;5074016;28;20355;-42
2022/01/15 05:26:18;;;;;;;;;;;0.10;99.90;;;;;;5073720;28;19991;-41
2022/01/15 05:28:44;;;;;;;;;;;0.10;99.90;;;;;;5073733;28;19923;-41
2022/01/15 05:31:09;;;;;;;;;;;0.20;99.90;;;;;;5073953;28;19913;-44
2022/01/15 05:33:34;;;;;;;;;;;0.00;99.90;;;;;;5073655;28;19923;-42
2022/01/15 05:36:00;;;;;;;;;;;0.00;99.90;;;;;;5073660;28;19966;-43
2022/01/15 05:38:26;;;;;;;;;;;-0.10;99.90;;;;;;5073342;28;19912;-42
2022/01/15 05:40:51;;;;;;;;;;;-0.20;99.90;;;;;;5055921;28;19909;-41
2022/01/15 05:43:17;;;;;;;;;;;-0.20;99.90;;;;;;5073577;28;19965;-42
2022/01/15 05:45:42;;;;;;;;;;;0.00;99.90;;;;;;5073879;28;19919;-41
2022/01/15 05:48:08;;;;;;;;;;;-0.10;99.90;;;;;;5073570;28;20011;-42
2022/01/15 05:50:34;;;;;;;;;;;0.00;99.90;;;;;;5073558;28;19917;-42
2022/01/15 05:52:59;;;;;;;;;;;-0.10;99.90;;;;;;5073458;28;19919;-41
2022/01/15 05:55:25;;;;;;;;;;;0.10;99.90;;;;;;5073462;28;19917;-41
2022/01/15 05:57:50;;;;;;;;;;;0.10;99.90;;;;;;5073556;28;19956;-42
2022/01/15 06:00:16;;;;;;;;;;;0.10;99.90;;;;;;5073193;28;19952;-42
2022/01/15 06:02:41;;;;;;;;;;;0.20;99.90;;;;;;5077067;28;20430;-42
2022/01/15 06:05:07;;;;;;;;;;;0.20;99.90;;;;;;5080267;28;19931;-42
2022/01/15 06:07:33;;;;;;;;;;;0.20;99.90;;;;;;5080204;28;19912;-42
2022/01/15 06:09:58;;;;;;;;;;;0.20;99.90;;;;;;5080069;28;19912;-41
2022/01/15 06:12:29;;;;;;;;;;;0.20;99.90;;;;;;5080108;28;19979;-42
2022/01/15 06:14:55;;;;;;;;;;;0.20;99.90;;;;;;5079108;28;19950;-42
2022/01/15 06:17:21;;;;;;;;;;;0.10;99.90;;;;;;5062126;28;19916;-42
2022/01/15 06:19:46;;;;;;;;;;;0.10;99.90;;;;;;5080328;28;19916;-42
2022/01/15 06:22:12;;;;;;;;;;;0.00;99.90;;;;;;5079785;28;19913;-42
2022/01/15 06:24:37;;;;;;;;;;;-0.10;99.90;;;;;;5079896;28;19908;-42
2022/01/15 06:27:03;;;;;;;;;;;-0.10;99.90;;;;;;5079667;28;19912;-42
2022/01/15 06:29:29;;;;;;;;;;;-0.10;99.90;;;;;;5079810;28;19917;-41
2022/01/15 06:31:54;;;;;;;;;;;0.00;99.90;;;;;;5079811;28;19969;-42
2022/01/15 06:34:20;;;;;;;;;;;-0.20;99.90;;;;;;5079494;28;19970;-42
2022/01/15 06:36:46;;;;;;;;;;;-0.10;99.90;;;;;;5079809;28;20270;-42
2022/01/15 06:39:11;;;;;;;;;;;-0.20;99.90;;;;;;5079409;28;19924;-41
2022/01/15 06:41:37;;;;;;;;;;;-0.20;99.90;;;;;;5079293;28;19912;-41
2022/01/15 06:44:02;;;;;;;;;;;-0.10;99.90;;;;;;5079621;28;19966;-41
2022/01/15 06:46:28;;;;;;;;;;;0.00;99.90;;;;;;5079663;28;19912;-42
2022/01/15 06:48:53;;;;;;;;;;;0.00;99.90;;;;;;5078929;28;19924;-42
2022/01/15 06:51:19;;;;;;;;;;;-0.10;99.90;;;;;;5079922;28;19913;-46
2022/01/15 06:53:44;;;;;;;;;;;-0.20;99.90;;;;;;5079499;28;20058;-42
2022/01/15 06:56:10;;;;;;;;;;;-0.30;99.90;;;;;;5079132;28;19919;-42
2022/01/15 06:58:35;;;;;;;;;;;-0.30;99.90;;;;;;5079685;28;19916;-42
2022/01/15 07:01:01;;;;;;;;;;;-0.40;99.90;;;;;;5078364;28;20376;-42
2022/01/15 07:03:27;;;;;;;;;;;-0.40;99.90;;;;;;5078928;28;19991;-41
2022/01/15 07:05:52;;;;;;;;;;;-0.40;99.90;;;;;;5079497;28;19908;-41
2022/01/15 07:08:18;;;;;;;;;;;-0.40;99.90;;;;;;5076898;28;19955;-42
2022/01/15 07:10:43;;;;;;;;;;;-0.30;99.90;;;;;;5079508;28;19917;-42
2022/01/15 07:13:09;;;;;;;;;;;-0.30;99.90;;;;;;5077581;28;20013;-42
2022/01/15 07:15:35;;;;;;;;;;;-0.40;99.90;;;;;;5074710;28;19923;-41
2022/01/15 07:18:01;;;;;;;;;;;-0.20;99.90;;;;;;5075710;28;19915;-42
2022/01/15 07:20:27;;;;;;;;;;;-0.10;99.90;;;;;;5075616;28;19913;-43
2022/01/15 07:22:52;;;;;;;;;;;-0.10;99.90;;;;;;5075373;28;19967;-44
2022/01/15 07:25:18;;;;;;;;;;;0.00;99.90;;;;;;5076151;28;19917;-44
2022/01/15 07:27:43;;;;;;;;;;;0.00;99.90;;;;;;5075311;28;20011;-44
2022/01/15 07:30:10;;;;;;;;;;;0.10;99.90;;;;;;5075628;28;20004;-44
2022/01/15 07:32:36;;;;;;;;;;;0.00;99.90;;;;;;5075868;28;19916;-43
2022/01/15 07:35:02;;;;;;;;;;;0.00;99.90;;;;;;5057486;28;19912;-45
2022/01/15 07:37:27;;;;;;;;;;;0.20;99.90;;;;;;5075742;28;19931;-41
2022/01/15 07:39:53;;;;;;;;;;;0.30;99.90;;;;;;5073498;28;20355;-42
2022/01/15 07:42:19;;;;;;;;;;;0.40;99.90;;;;;;5075195;28;20251;-42
2022/01/15 07:44:45;;;;;;;;;;;0.50;99.90;;;;;;5075642;28;19969;-43
2022/01/15 07:47:12;;;;;;;;;;;0.70;99.90;;;;;;5064552;28;20032;-42
2022/01/15 07:49:37;;;;;;;;;;;0.70;99.90;;;;;;5075106;28;19916;-44
2022/01/15 07:52:03;;;;;;;;;;;0.70;99.90;;;;;;5074737;28;20292;-43
2022/01/15 07:54:28;;;;;;;;;;;0.80;99.90;;;;;;5074703;28;19913;-42
2022/01/15 07:56:55;;;;;;;;;;;0.80;99.90;;;;;;5074376;28;20385;-43
2022/01/15 07:59:24;;;;;;;;;;;0.80;99.90;;;;;;5075187;28;19989;-42
2022/01/15 08:01:49;;;;;;;;;;;0.70;99.90;;;;;;5073922;28;19917;-42
2022/01/15 08:04:15;;;;;;;;;;;0.80;99.90;;;;;;5074534;28;19924;-42
2022/01/15 08:06:41;;;;;;;;;;;0.90;99.90;;;;;;5074509;28;19958;-42
2022/01/15 08:09:07;;;;;;;;;;;1.00;99.90;;;;;;5075166;28;19916;-43
2022/01/15 08:11:32;;;;;;;;;;;1.00;99.90;;;;;;5075178;28;19919;-42
2022/01/15 08:13:58;;;;;;;;;;;1.20;99.90;;;;;;5074901;28;19915;-41
2022/01/15 08:16:23;;;;;;;;;;;1.20;99.90;;;;;;5074617;28;19908;-41
2022/01/15 08:18:49;;;;;;;;;;;1.20;99.90;;;;;;5075018;28;20342;-42
2022/01/15 08:21:14;;;;;;;;;;;1.30;99.90;;;;;;5074726;28;20309;-43
2022/01/15 08:23:40;;;;;;;;;;;1.30;99.90;;;;;;5075113;28;19927;-43
2022/01/15 08:26:05;;;;;;;;;;;1.40;99.90;;;;;;5074561;28;19982;-44
2022/01/15 08:28:31;;;;;;;;;;;1.40;99.90;;;;;;5074431;28;19924;-44
2022/01/15 08:30:57;;;;;;;;;;;1.40;99.90;;;;;;5074872;28;19920;-42
2022/01/15 08:33:22;;;;;;;;;;;1.50;99.90;;;;;;5074560;28;19916;-43
2022/01/15 08:35:48;;;;;;;;;;;1.50;99.90;;;;;;5074567;28;19909;-42
2022/01/15 08:38:14;;;;;;;;;;;1.50;99.90;;;;;;5074695;28;19954;-42
2022/01/15 08:40:39;;;;;;;;;;;1.60;99.90;;;;;;5074806;28;19987;-42
2022/01/15 08:43:05;;;;;;;;;;;1.70;99.90;;;;;;5074592;28;20313;-44
2022/01/15 08:45:31;;;;;;;;;;;1.90;99.90;;;;;;5074715;28;19909;-44
2022/01/15 08:47:56;;;;;;;;;;;1.90;99.90;;;;;;5074204;28;19912;-43
2022/01/15 08:50:22;;;;;;;;;;;2.00;99.90;;;;;;5074094;28;19913;-42
2022/01/15 08:52:48;;;;;;;;;;;2.00;99.90;;;;;;5074309;28;19961;-43
2022/01/15 08:55:15;;;;;;;;;;;2.00;99.90;;;;;;5074044;28;19908;-43
2022/01/15 08:57:40;;;;;;;;;;;2.00;99.90;;;;;;5074330;28;20343;-43
2022/01/15 09:00:07;;;;;;;;;;;2.10;99.90;;;;;;5074031;28;20023;-42
2022/01/15 09:02:33;;;;;;;;;;;2.10;99.90;;;;;;5073455;28;19909;-44
2022/01/15 09:04:59;;;;;;;;;;;2.10;99.90;;;;;;5073972;28;19915;-42
2022/01/15 09:07:24;;;;;;;;;;;2.30;99.90;;;;;;5074267;28;19924;-42
2022/01/15 09:09:50;;;;;;;;;;;2.20;99.90;;;;;;5074362;28;19916;-42
2022/01/15 09:12:17;;;;;;;;;;;2.30;99.90;;;;;;5074301;28;20235;-44
2022/01/15 09:14:43;;;;;;;;;;;2.40;99.90;;;;;;5073456;28;19961;-43
2022/01/15 09:17:08;;;;;;;;;;;2.30;99.90;;;;;;5074051;28;19912;-42
2022/01/15 09:19:34;;;;;;;;;;;2.10;99.90;;;;;;5074291;28;19908;-42
2022/01/15 09:22:00;;;;;;;;;;;2.20;99.90;;;;;;5055193;28;19920;-43
2022/01/15 09:24:25;;;;;;;;;;;2.20;99.90;;;;;;5073746;28;19916;-43
2022/01/15 09:32:04;;;;;;;;;;;2.40;99.90;;;;;;5074033;28;19966;-42
2022/01/15 09:34:30;;;;;;;;;;;2.70;99.90;;;;;;5055503;28;19915;-44
2022/01/15 09:36:56;;;;;;;;;;;2.60;99.90;;;;;;5072706;28;20358;-44
2022/01/15 09:39:23;;;;;;;;;;;2.70;99.90;;;;;;5055450;28;19947;-43
2022/01/15 09:41:51;;;;;;;;;;;2.80;99.90;;;;;;5073406;28;20224;-43
2022/01/15 09:44:17;;;;;;;;;;;3.10;99.90;;;;;;5073463;28;19924;-46
2022/01/15 09:46:44;;;;;;;;;;;3.20;99.90;;;;;;5073319;28;19908;-42
2022/01/15 09:49:10;;;;;;;;;;;3.00;99.90;;;;;;5072886;28;19974;-44
2022/01/15 09:51:36;;;;;;;;;;;3.20;99.90;;;;;;5073477;28;19919;-43
2022/01/15 09:54:01;;;;;;;;;;;3.30;99.90;;;;;;5073072;28;19908;-42
2022/01/15 09:56:27;;;;;;;;;;;3.00;99.90;;;;;;5073092;28;19908;-43
2022/01/15 09:58:57;;;;;;;;;;;3.10;99.90;;;;;;5073326;28;20404;-42
2022/01/15 10:01:26;;;;;;;;;;;3.10;99.90;;;;;;5072706;28;20355;-43
2022/01/15 10:03:52;;;;;;;;;;;3.30;99.90;;;;;;5073433;28;19962;-42
2022/01/15 10:06:17;;;;;;;;;;;3.30;99.90;;;;;;5073295;28;19908;-44
2022/01/15 10:08:57;;;;;;;;;;;2.90;99.90;;;;;;5073034;28;19912;-46
2022/01/15 10:11:41;;;;;;;;;;;2.90;99.90;;;;;;5073842;28;19913;-42
2022/01/15 10:14:23;;;;;;;;;;;3.20;99.90;;;;;;5072957;28;20322;-42
2022/01/15 10:16:48;;;;;;;;;;;3.20;99.90;;;;;;5073179;28;20007;-43
2022/01/15 10:19:33;;;;;;;;;;;3.10;99.90;;;;;;5072942;28;20358;-42
2022/01/15 10:22:05;;;;;;;;;;;3.10;99.90;;;;;;5072511;28;19951;-42
2022/01/15 10:24:30;;;;;;;;;;;3.20;99.90;;;;;;5072822;28;20442;-43
2022/01/15 10:26:56;;;;;;;;;;;3.00;99.90;;;;;;5073231;28;19940;-43
2022/01/15 10:29:21;;;;;;;;;;;2.80;99.90;;;;;;5072922;28;19935;-41
2022/01/15 10:31:47;;;;;;;;;;;2.90;99.90;;;;;;5072872;28;19912;-45
2022/01/15 10:34:29;;;;;;;;;;;2.80;99.90;;;;;;5072925;28;19912;-42
2022/01/15 10:37:08;;;;;;;;;;;2.70;99.90;;;;;;5072671;28;19943;-43
2022/01/15 10:39:34;;;;;;;;;;;2.70;99.90;;;;;;5072644;28;19909;-44
2022/01/15 10:42:00;;;;;;;;;;;2.90;99.90;;;;;;5072505;28;20260;-45
2022/01/15 10:44:28;;;;;;;;;;;2.80;99.90;;;;;;5073113;28;19912;-43
2022/01/15 10:47:01;;;;;;;;;;;2.80;99.90;;;;;;5072380;28;20308;-42
2022/01/15 10:49:26;;;;;;;;;;;2.90;99.90;;;;;;5074070;28;20489;-42
2022/01/15 10:52:10;;;;;;;;;;;2.80;99.90;;;;;;5076122;28;19948;-42
2022/01/15 10:54:51;;;;;;;;;;;2.90;99.90;;;;;;5076434;28;19913;-43
2022/01/15 10:57:18;;;;;;;;;;;2.80;99.90;;;;;;5075828;28;20008;-42
2022/01/15 10:59:54;;;;;;;;;;;2.90;99.90;;;;;;5076451;28;20000;-43
2022/01/15 11:02:20;;;;;;;;;;;3.10;99.90;;;;;;5076202;28;19915;-45
2022/01/15 11:04:45;;;;;;;;;;;3.40;99.90;;;;;;5075696;28;19923;-44
2022/01/15 11:07:11;;;;;;;;;;;3.30;99.90;;;;;;5075942;28;19908;-45
2022/01/15 11:09:37;;;;;;;;;;;3.20;99.90;;;;;;5076162;28;19912;-42
2022/01/15 11:12:04;;;;;;;;;;;3.40;99.90;;;;;;5076140;28;19954;-43
2022/01/15 11:14:30;;;;;;;;;;;3.40;99.90;;;;;;5075708;28;20363;-44
2022/01/15 11:16:57;;;;;;;;;;;3.40;99.90;;;;;;5076158;28;19908;-46
2022/01/15 11:19:24;;;;;;;;;;;3.40;99.90;;;;;;5075658;28;19908;-43
2022/01/15 11:21:50;;;;;;;;;;;3.50;99.90;;;;;;5076043;28;19915;-43
2022/01/15 11:24:17;;;;;;;;;;;3.30;99.90;;;;;;5075922;28;19938;-45
2022/01/15 11:26:43;;;;;;;;;;;3.00;99.90;;;;;;5075646;28;20361;-41
2022/01/15 11:29:10;;;;;;;;;;;3.00;99.90;;;;;;5075479;28;20412;-44
2022/01/15 11:31:36;;;;;;;;;;;2.90;99.90;;;;;;5075464;28;19916;-42
2022/01/15 11:34:04;;;;;;;;;;;2.20;99.90;;;;;;5075636;28;20003;-43
2022/01/15 11:36:37;;;;;;;;;;;1.80;99.90;;;;;;5075919;28;19908;-42
2022/01/15 11:39:10;;;;;;;;;;;1.80;99.90;;;;;;5057479;28;19909;-42
2022/01/15 11:41:46;;;;;;;;;;;2.00;99.90;;;;;;5057669;28;19913;-43
2022/01/15 11:44:15;;;;;;;;;;;2.00;99.90;;;;;;5075398;28;20274;-43
2022/01/15 11:46:41;;;;;;;;;;;2.40;99.90;;;;;;5075220;28;20359;-43
2022/01/15 11:49:26;;;;;;;;;;;2.50;99.90;;;;;;5057320;28;19912;-44
2022/01/15 11:51:51;;;;;;;;;;;2.50;99.90;;;;;;5075317;28;19988;-45
2022/01/15 11:54:17;;;;;;;;;;;2.20;99.90;;;;;;5075023;28;20290;-41
2022/01/15 11:56:43;;;;;;;;;;;2.30;99.90;;;;;;5075061;28;19909;-43
2022/01/15 11:59:29;;;;;;;;;;;2.40;99.90;;;;;;5074212;28;19909;-42
2022/01/15 12:01:59;;;;;;;;;;;2.60;99.90;;;;;;5074574;28;20320;-43
2022/01/15 12:04:35;;;;;;;;;;;2.80;99.90;;;;;;5074736;28;19937;-44
2022/01/15 12:07:07;;;;;;;;;;;2.80;99.90;;;;;;5075103;28;19908;-43
2022/01/15 12:09:33;;;;;;;;;;;2.80;99.90;;;;;;5074536;28;20413;-43
2022/01/15 12:11:59;;;;;;;;;;;2.90;99.90;;;;;;5075018;28;19909;-43
2022/01/15 12:14:43;;;;;;;;;;;2.90;99.90;;;;;;5074849;28;20002;-43
2022/01/15 12:17:47;;;;;;;;;;;3.00;99.90;;;;;;5074501;28;20382;-42
2022/01/15 12:20:20;;;;;;;;;;;3.10;99.90;;;;;;4992800;28;19933;-41
2022/01/15 12:22:46;;;;;;;;;;;2.60;99.90;;;;;;4992866;28;20443;-42
2022/01/15 12:25:13;;;;;;;;;;;2.10;99.90;;;;;;5034703;28;20339;-42
2022/01/15 12:27:40;;;;;;;;;;;2.30;99.90;;;;;;5073257;28;20286;-42
2022/01/15 12:30:10;;;;;;;;;;;2.20;99.90;;;;;;5074269;28;19912;-43
2022/01/15 12:32:39;;;;;;;;;;;2.40;99.90;;;;;;5074607;28;20346;-43
2022/01/15 12:35:05;;;;;;;;;;;2.60;99.90;;;;;;5074459;28;20366;-43
2022/01/15 12:37:31;;;;;;;;;;;2.40;99.90;;;;;;5074423;28;19908;-44
2022/01/15 12:39:57;;;;;;;;;;;2.50;99.90;;;;;;5074684;28;19909;-43
2022/01/15 12:42:29;;;;;;;;;;;2.60;99.90;;;;;;5074440;28;19954;-43
2022/01/15 12:44:54;;;;;;;;;;;2.60;99.90;;;;;;5074298;28;20359;-44
2022/01/15 12:47:21;;;;;;;;;;;2.80;99.90;;;;;;5073945;28;19909;-42
2022/01/15 12:49:52;;;;;;;;;;;2.90;99.90;;;;;;5074152;28;19914;-46
2022/01/15 12:52:25;;;;;;;;;;;2.70;99.90;;;;;;5073803;28;19908;-43
2022/01/15 12:54:52;;;;;;;;;;;2.90;99.90;;;;;;5074396;28;19909;-42
2022/01/15 12:57:36;;;;;;;;;;;2.70;99.90;;;;;;5073796;28;19908;-43
2022/01/15 13:00:12;;;;;;;;;;;2.30;99.90;;;;;;5073642;28;19954;-42
2022/01/15 13:02:37;;;;;;;;;;;2.20;99.90;;;;;;5073860;28;19908;-44
2022/01/15 13:05:03;;;;;;;;;;;2.30;99.90;;;;;;5074035;28;20254;-42
2022/01/15 13:07:45;;;;;;;;;;;2.40;99.90;;;;;;5073726;28;19968;-43
2022/01/15 13:10:23;;;;;;;;;;;2.50;99.90;;;;;;5074032;28;20283;-44
2022/01/15 13:12:48;;;;;;;;;;;2.70;99.90;;;;;;5072952;28;20365;-43
2022/01/15 13:15:21;;;;;;;;;;;2.70;99.90;;;;;;5073654;28;19909;-43
2022/01/15 13:17:46;;;;;;;;;;;2.60;99.90;;;;;;5073149;28;19909;-41
2022/01/15 13:20:32;;;;;;;;;;;2.60;99.90;;;;;;5073009;28;19915;-43
2022/01/15 13:22:58;;;;;;;;;;;2.80;99.90;;;;;;5073468;28;19927;-44
2022/01/15 13:25:24;;;;;;;;;;;2.80;99.90;;;;;;5073532;28;19912;-42
2022/01/15 13:27:50;;;;;;;;;;;2.90;99.90;;;;;;5073503;28;19916;-47
2022/01/15 13:30:16;;;;;;;;;;;2.90;99.90;;;;;;5072912;28;19951;-43
2022/01/15 13:32:50;;;;;;;;;;;2.80;99.90;;;;;;5073237;28;19951;-42
2022/01/15 13:35:18;;;;;;;;;;;2.40;99.90;;;;;;5073225;28;20343;-41
2022/01/15 13:37:51;;;;;;;;;;;2.50;99.90;;;;;;5073214;28;19909;-45
2022/01/15 13:40:37;;;;;;;;;;;2.20;99.90;;;;;;5073259;28;19940;-44
2022/01/15 13:43:03;;;;;;;;;;;2.20;99.90;;;;;;5073361;28;19999;-44
2022/01/15 13:45:37;;;;;;;;;;;2.40;99.90;;;;;;5073010;28;20012;-43
2022/01/15 13:48:16;;;;;;;;;;;2.40;99.90;;;;;;5073187;28;19924;-42
2022/01/15 13:53:36;;;;;;;;;;;2.50;99.90;;;;;;5072986;28;19926;-42
2022/01/15 13:56:28;;;;;;;;;;;2.60;99.90;;;;;;5073180;28;20274;-43
2022/01/15 13:59:03;;;;;;;;;;;2.50;99.90;;;;;;5068990;28;19909;-42
2022/01/15 14:01:29;;;;;;;;;;;2.70;99.90;;;;;;5073092;28;19909;-44
2022/01/15 14:03:55;;;;;;;;;;;2.80;99.90;;;;;;5072993;28;20330;-43
2022/01/15 14:06:21;;;;;;;;;;;2.90;99.90;;;;;;5072916;28;19908;-42
2022/01/15 14:08:47;;;;;;;;;;;2.80;99.90;;;;;;5073142;28;20015;-42
2022/01/15 14:11:16;;;;;;;;;;;2.70;99.90;;;;;;5072777;28;19908;-43
2022/01/15 14:13:43;;;;;;;;;;;2.10;99.90;;;;;;5073667;28;20244;-42
2022/01/15 14:16:24;;;;;;;;;;;1.90;99.90;;;;;;5073160;28;19913;-42
2022/01/15 14:19:00;;;;;;;;;;;1.70;99.90;;;;;;5072570;28;20355;-43
2022/01/15 14:23:58;;;;;;;;;;;1.80;99.90;;;;;;5076187;28;19999;-44
2022/01/15 14:26:25;;;;;;;;;;;1.90;99.90;;;;;;5076628;28;19958;-42
2022/01/15 14:28:51;;;;;;;;;;;2.10;99.90;;;;;;5076658;28;19917;-43
2022/01/15 14:31:19;;;;;;;;;;;2.10;99.90;;;;;;5076503;28;20268;-43
2022/01/15 14:33:56;;;;;;;;;;;2.10;99.90;;;;;;5076701;28;19909;-43
2022/01/15 14:36:21;;;;;;;;;;;1.90;99.90;;;;;;5076700;28;20339;-43
2022/01/15 14:38:47;;;;;;;;;;;1.80;99.90;;;;;;5076332;28;19915;-42
2022/01/15 14:41:13;;;;;;;;;;;1.70;99.90;;;;;;5076430;28;20363;-41
2022/01/15 14:43:39;;;;;;;;;;;1.80;99.90;;;;;;5075931;28;19958;-42
2022/01/15 14:46:04;;;;;;;;;;;1.90;99.90;;;;;;5075992;28;19912;-43
2022/01/15 14:48:30;;;;;;;;;;;1.90;99.90;;;;;;5076025;28;19916;-42
2022/01/15 14:50:57;;;;;;;;;;;1.90;99.90;;;;;;5076048;28;20359;-41
2022/01/15 14:53:23;;;;;;;;;;;1.70;99.90;;;;;;5075777;28;20362;-43
2022/01/15 14:55:48;;;;;;;;;;;1.90;99.90;;;;;;5076585;28;19908;-42
2022/01/15 14:58:14;;;;;;;;;;;1.70;99.90;;;;;;5076173;28;19962;-43
2022/01/15 15:00:39;;;;;;;;;;;1.50;99.90;;;;;;5075491;28;20374;-42